Time;durP1;ratioP1;P1;durP2;ratioP2;P2;SDS_P1;SDS_P2;PMS_P1;PMS_P2;Temp;Humidity;BMP_temperature;BMP_pressure;BME280_temperature;BME280_humidity;BME280_pressure;Samples;Min_cycle;Max_cycle;Signal;HPM_P1;HPM_P2
2022/01/14 00:01:50;;;;;;;8.93;4.75;;;;;;;;;;5072192;28;20521;-67
2022/01/14 00:04:15;;;;;;;9.20;4.95;;;;;;;;;;5072478;28;20123;-67
2022/01/14 00:06:41;;;;;;;12.30;4.88;;;;;;;;;;5071806;28;20243;-67
2022/01/14 00:09:09;;;;;;;10.23;4.97;;;;;;;;;;5072026;28;20147;-68
2022/01/14 00:11:56;;;;;;;10.70;5.07;;;;;;;;;;5072145;28;20486;-67
2022/01/14 00:14:36;;;;;;;11.20;5.05;;;;;;;;;;5070508;28;20361;-67
2022/01/14 00:17:20;;;;;;;9.65;4.80;;;;;;;;;;5071556;28;20520;-68
2022/01/14 00:19:45;;;;;;;8.55;4.22;;;;;;;;;;5071718;28;20029;-67
2022/01/14 00:22:16;;;;;;;8.77;4.57;;;;;;;;;;5071780;28;20043;-67
2022/01/14 00:35:27;;;;;;;11.77;4.20;;;;;;;;;;5071091;28;20032;-67
2022/01/14 00:37:52;;;;;;;9.95;4.30;;;;;;;;;;5071157;28;20393;-67
2022/01/14 00:40:18;;;;;;;8.65;4.20;;;;;;;;;;5070957;28;20025;-68
2022/01/14 00:42:44;;;;;;;8.88;3.90;;;;;;;;;;5071638;28;20048;-69
2022/01/14 00:45:11;;;;;;;7.97;3.83;;;;;;;;;;5071192;28;20029;-67
2022/01/14 00:47:39;;;;;;;9.50;4.03;;;;;;;;;;5071409;28;20024;-68
2022/01/14 00:50:10;;;;;;;9.82;3.60;;;;;;;;;;5071147;28;20020;-67
2022/01/14 00:52:37;;;;;;;10.70;3.95;;;;;;;;;;5071058;28;20491;-69
2022/01/14 00:55:04;;;;;;;9.05;3.90;;;;;;;;;;5070820;28;20028;-69
2022/01/14 01:00:21;;;;;;;7.95;3.70;;;;;;;;;;5070944;28;20552;-67
2022/01/14 01:02:46;;;;;;;9.00;3.95;;;;;;;;;;5071159;28;20049;-68
2022/01/14 01:05:13;;;;;;;9.85;4.00;;;;;;;;;;5070696;28;20104;-68
2022/01/14 01:07:41;;;;;;;11.23;3.90;;;;;;;;;;5070744;28;20025;-69
2022/01/14 01:10:07;;;;;;;9.50;4.00;;;;;;;;;;5071059;28;20395;-69
2022/01/14 01:12:54;;;;;;;8.70;4.30;;;;;;;;;;5071138;28;20485;-67
2022/01/14 01:15:21;;;;;;;8.00;3.45;;;;;;;;;;5070453;28;20032;-67
2022/01/14 01:17:47;;;;;;;7.38;3.45;;;;;;;;;;5070619;28;20048;-69
2022/01/14 01:20:18;;;;;;;7.38;3.58;;;;;;;;;;5070707;28;20401;-69
2022/01/14 01:22:48;;;;;;;7.38;3.42;;;;;;;;;;5070555;28;20028;-68
2022/01/14 01:25:16;;;;;;;;;;;;;;;;;;5070705;28;20617;-68
2022/01/14 01:27:43;;;;;;;10.57;3.58;;;;;;;;;;5070368;28;19923;-68
2022/01/14 01:32:58;;;;;;;10.13;3.90;;;;;;;;;;5038648;28;20039;-67
2022/01/14 01:35:24;;;;;;;9.20;3.60;;;;;;;;;;5070385;28;20032;-67
2022/01/14 01:37:49;;;;;;;7.60;3.30;;;;;;;;;;5070159;28;20357;-68
2022/01/14 01:40:16;;;;;;;8.20;3.70;;;;;;;;;;5070212;28;20078;-68
2022/01/14 01:42:44;;;;;;;7.85;3.10;;;;;;;;;;5070174;28;20120;-67
2022/01/14 01:45:12;;;;;;;6.68;3.28;;;;;;;;;;5069823;28;20021;-67
2022/01/14 01:47:39;;;;;;;9.10;3.80;;;;;;;;;;5070346;28;20430;-66
2022/01/14 01:50:13;;;;;;;7.25;3.25;;;;;;;;;;5069626;28;20059;-67
2022/01/14 01:52:39;;;;;;;7.75;3.58;;;;;;;;;;5070555;28;20024;-68
2022/01/14 01:55:05;;;;;;;7.25;3.33;;;;;;;;;;5070058;28;20020;-68
2022/01/14 01:57:31;;;;;;;7.22;3.67;;;;;;;;;;5070101;28;20041;-67
2022/01/14 01:59:56;;;;;;;7.28;3.90;;;;;;;;;;5068544;28;20036;-67
2022/01/14 02:02:22;;;;;;;7.15;3.53;;;;;;;;;;5070003;28;20579;-67
2022/01/14 02:04:47;;;;;;;9.73;3.90;;;;;;;;;;5070056;28;20074;-67
2022/01/14 02:07:13;;;;;;;9.10;3.70;;;;;;;;;;5070095;28;20070;-67
2022/01/14 02:09:39;;;;;;;6.95;3.35;;;;;;;;;;5070643;28;20028;-67
2022/01/14 02:12:09;;;;;;;6.43;3.20;;;;;;;;;;5070116;28;20266;-67
2022/01/14 02:19:32;;;;;;;9.43;3.83;;;;;;;;;;5069892;28;20025;-68
2022/01/14 02:22:14;;;;;;;7.45;3.35;;;;;;;;;;5068674;28;20191;-67
2022/01/14 02:27:08;;;;;;;8.20;3.53;;;;;;;;;;5069669;28;20115;-67
2022/01/14 02:29:34;;;;;;;9.68;3.47;;;;;;;;;;5069847;28;20025;-68
2022/01/14 02:32:00;;;;;;;8.30;3.65;;;;;;;;;;5069879;28;20032;-66
2022/01/14 02:34:26;;;;;;;9.45;3.63;;;;;;;;;;5069552;28;20089;-66
2022/01/14 02:36:52;;;;;;;8.80;3.58;;;;;;;;;;5069587;28;20048;-67
2022/01/14 02:39:19;;;;;;;7.60;3.42;;;;;;;;;;5069828;28;20021;-68
2022/01/14 02:41:47;;;;;;;8.05;3.60;;;;;;;;;;5070017;28;20047;-67
2022/01/14 02:44:23;;;;;;;7.68;3.55;;;;;;;;;;5069661;28;20464;-67
2022/01/14 02:46:56;;;;;;;7.13;3.75;;;;;;;;;;5069563;28;20047;-66
2022/01/14 02:49:29;;;;;;;8.70;3.72;;;;;;;;;;5069337;28;20059;-68
2022/01/14 02:51:56;;;;;;;6.78;3.72;;;;;;;;;;5069464;28;20021;-67
2022/01/14 02:54:24;;;;;;;8.45;4.10;;;;;;;;;;5069618;28;20024;-68
2022/01/14 02:56:54;;;;;;;11.60;3.97;;;;;;;;;;5069603;28;20056;-68
2022/01/14 02:59:21;;;;;;;10.93;3.95;;;;;;;;;;5069571;28;20082;-67
2022/01/14 03:01:49;;;;;;;12.55;3.80;;;;;;;;;;5070318;28;20036;-68
2022/01/14 03:04:18;;;;;;;11.73;4.53;;;;;;;;;;5073068;28;20025;-67
2022/01/14 03:06:45;;;;;;;7.15;3.80;;;;;;;;;;5072859;28;20026;-68
2022/01/14 03:09:10;;;;;;;8.70;4.03;;;;;;;;;;5072867;28;20025;-67
2022/01/14 03:11:53;;;;;;;10.85;4.30;;;;;;;;;;5072903;28;20027;-67
2022/01/14 03:14:24;;;;;;;9.40;4.30;;;;;;;;;;5072921;28;20032;-67
2022/01/14 03:16:51;;;;;;;9.60;4.53;;;;;;;;;;5072757;28;20102;-68
2022/01/14 03:19:21;;;;;;;9.10;4.30;;;;;;;;;;5073341;28;20039;-67
2022/01/14 03:21:49;;;;;;;8.75;4.10;;;;;;;;;;5072989;28;20023;-67
2022/01/14 03:25:47;;;;;;;9.23;4.30;;;;;;;;;;5072799;28;20492;-67
2022/01/14 03:27:06;;;;;;;7.85;4.05;;;;;;;;;;5072415;28;20267;-68
2022/01/14 03:29:32;;;;;;;8.68;4.38;;;;;;;;;;5072795;28;20686;-66
2022/01/14 03:31:58;;;;;;;10.63;4.47;;;;;;;;;;5072813;28;20539;-69
2022/01/14 03:34:23;;;;;;;12.52;5.20;;;;;;;;;;5072838;28;20082;-66
2022/01/14 03:36:49;;;;;;;10.43;4.65;;;;;;;;;;5072608;28;20047;-68
2022/01/14 03:39:15;;;;;;;10.60;4.70;;;;;;;;;;5072597;28;20025;-67
2022/01/14 03:41:40;;;;;;;9.77;4.70;;;;;;;;;;5072560;28;20071;-69
2022/01/14 03:44:06;;;;;;;10.10;4.50;;;;;;;;;;5072350;28;20287;-68
2022/01/14 03:46:32;;;;;;;12.20;4.60;;;;;;;;;;5072480;28;20047;-69
2022/01/14 03:48:57;;;;;;;9.20;4.47;;;;;;;;;;5072413;28;20032;-68
2022/01/14 03:51:23;;;;;;;9.23;4.40;;;;;;;;;;5072507;28;20078;-67
2022/01/14 03:53:49;;;;;;;12.27;4.60;;;;;;;;;;5072325;28;20039;-68
2022/01/14 03:56:16;;;;;;;7.85;3.78;;;;;;;;;;5072032;28;20028;-67
2022/01/14 03:58:42;;;;;;;9.35;3.90;;;;;;;;;;5071947;28;20024;-67
2022/01/14 04:01:12;;;;;;;9.60;3.65;;;;;;;;;;5071993;28;20099;-68
2022/01/14 04:03:38;;;;;;;8.88;4.05;;;;;;;;;;5072311;28;20647;-67
2022/01/14 04:06:04;;;;;;;9.55;3.90;;;;;;;;;;5072028;28;20039;-69
2022/01/14 04:08:30;;;;;;;7.97;3.67;;;;;;;;;;5072288;28;20390;-66
2022/01/14 04:10:57;;;;;;;8.38;3.40;;;;;;;;;;5072335;28;20020;-66
2022/01/14 04:13:36;;;;;;;9.10;3.63;;;;;;;;;;5071137;28;20020;-67
2022/01/14 04:16:02;;;;;;;6.88;3.90;;;;;;;;;;5071332;28;20277;-67
2022/01/14 04:18:27;;;;;;;8.27;3.78;;;;;;;;;;5071792;28;20305;-67
2022/01/14 04:20:53;;;;;;;13.98;3.90;;;;;;;;;;5071868;28;20020;-66
2022/01/14 04:23:24;;;;;;;8.25;3.40;;;;;;;;;;5071984;28;20031;-68
2022/01/14 04:25:54;;;;;;;8.95;3.63;;;;;;;;;;5071873;28;20738;-67
2022/01/14 04:28:21;;;;;;;8.35;3.72;;;;;;;;;;5070367;28;20036;-69
2022/01/14 04:30:48;;;;;;;6.75;3.40;;;;;;;;;;5071579;28;20033;-68
2022/01/14 04:33:14;;;;;;;7.00;3.15;;;;;;;;;;5071426;28;20078;-68
2022/01/14 04:35:40;;;;;;;9.57;3.20;;;;;;;;;;5071064;28;20028;-68
2022/01/14 04:38:05;;;;;;;8.35;3.33;;;;;;;;;;5071461;28;20028;-67
2022/01/14 04:40:31;;;;;;;7.80;3.42;;;;;;;;;;5071605;28;20020;-68
2022/01/14 04:42:59;;;;;;;10.65;3.80;;;;;;;;;;5071511;28;20043;-66
2022/01/14 04:48:12;;;;;;;7.50;3.35;;;;;;;;;;5029277;28;20296;-68
2022/01/14 04:50:38;;;;;;;7.95;3.72;;;;;;;;;;5071178;28;20025;-66
2022/01/14 04:53:03;;;;;;;9.15;3.40;;;;;;;;;;5071216;28;20028;-67
2022/01/14 04:55:29;;;;;;;7.57;3.15;;;;;;;;;;5070998;28;20028;-69
2022/01/14 04:57:56;;;;;;;7.28;3.15;;;;;;;;;;5071179;28;20032;-68
2022/01/14 05:00:23;;;;;;;7.75;3.33;;;;;;;;;;5071321;28;20079;-68
2022/01/14 05:02:52;;;;;;;7.82;3.30;;;;;;;;;;5070963;28;20036;-67
2022/01/14 05:05:20;;;;;;;6.03;2.83;;;;;;;;;;5070692;28;20245;-67
2022/01/14 05:07:47;;;;;;;9.45;3.40;;;;;;;;;;5070709;28;20024;-67
2022/01/14 05:10:35;;;;;;;6.80;3.00;;;;;;;;;;5070773;28;20487;-67
2022/01/14 05:13:01;;;;;;;6.40;2.80;;;;;;;;;;5070809;28;20032;-66
2022/01/14 05:15:27;;;;;;;7.82;3.30;;;;;;;;;;5103115;28;20044;-66
2022/01/14 05:17:53;;;;;;;10.05;2.97;;;;;;;;;;5070487;28;20488;-66
2022/01/14 05:20:20;;;;;;;7.70;2.72;;;;;;;;;;5070817;28;20055;-68
2022/01/14 05:22:46;;;;;;;6.45;3.05;;;;;;;;;;5070558;28;20107;-67
2022/01/14 05:25:14;;;;;;;8.40;2.85;;;;;;;;;;5070258;28;20017;-68
2022/01/14 05:27:40;;;;;;;9.90;2.85;;;;;;;;;;5070845;28;20471;-67
2022/01/14 05:30:08;;;;;;;6.50;2.42;;;;;;;;;;5103022;28;20021;-68
2022/01/14 05:32:34;;;;;;;8.60;2.90;;;;;;;;;;5070648;28;20412;-67
2022/01/14 05:35:00;;;;;;;6.38;2.67;;;;;;;;;;5070365;28;20125;-67
2022/01/14 05:37:26;;;;;;;5.57;2.70;;;;;;;;;;5070233;28;20495;-67
2022/01/14 05:39:51;;;;;;;7.22;2.60;;;;;;;;;;5070134;28;20488;-66
2022/01/14 05:42:17;;;;;;;9.70;2.88;;;;;;;;;;5070146;28;20027;-67
2022/01/14 05:44:43;;;;;;;8.68;2.70;;;;;;;;;;5070117;28;20024;-67
2022/01/14 05:47:09;;;;;;;7.22;2.78;;;;;;;;;;5070137;28;20395;-68
2022/01/14 05:49:34;;;;;;;7.80;3.00;;;;;;;;;;5070291;28;20070;-66
2022/01/14 05:52:00;;;;;;;6.32;3.05;;;;;;;;;;5070253;28;20032;-67
2022/01/14 05:54:26;;;;;;;6.53;3.05;;;;;;;;;;5070569;28;20028;-67
2022/01/14 05:56:52;;;;;;;8.60;3.03;;;;;;;;;;5069885;28;20028;-68
2022/01/14 05:59:18;;;;;;;6.65;2.92;;;;;;;;;;5069832;28;20549;-67
2022/01/14 06:01:45;;;;;;;11.27;3.05;;;;;;;;;;5070021;28;20023;-68
2022/01/14 06:04:10;;;;;;;8.20;2.92;;;;;;;;;;5070172;28;20029;-66
2022/01/14 06:06:36;;;;;;;7.03;3.40;;;;;;;;;;5069976;28;20052;-68
2022/01/14 06:09:03;;;;;;;5.57;2.83;;;;;;;;;;5070173;28;20035;-67
2022/01/14 06:11:29;;;;;;;9.50;3.33;;;;;;;;;;5069846;28;20032;-67
2022/01/14 06:13:54;;;;;;;6.97;3.20;;;;;;;;;;5069604;28;20047;-68
2022/01/14 06:16:20;;;;;;;8.68;3.30;;;;;;;;;;5069477;28;20118;-66
2022/01/14 06:18:46;;;;;;;10.02;3.15;;;;;;;;;;5069957;28;20040;-67
2022/01/14 06:21:12;;;;;;;9.50;3.08;;;;;;;;;;5069996;28;20025;-66
2022/01/14 06:23:38;;;;;;;10.07;3.20;;;;;;;;;;5069864;28;20078;-67
2022/01/14 06:26:03;;;;;;;8.75;3.15;;;;;;;;;;5069701;28;20039;-67
2022/01/14 06:28:29;;;;;;;10.25;3.28;;;;;;;;;;5069855;28;20024;-69
2022/01/14 06:30:54;;;;;;;11.48;3.38;;;;;;;;;;5069521;28;20194;-68
2022/01/14 06:33:20;;;;;;;7.43;3.20;;;;;;;;;;5070096;28;20520;-68
2022/01/14 06:35:45;;;;;;;8.45;3.10;;;;;;;;;;5069661;28;20024;-67
2022/01/14 06:38:11;;;;;;;8.02;3.05;;;;;;;;;;5072990;28;20024;-67
2022/01/14 06:40:38;;;;;;;10.63;3.33;;;;;;;;;;5073984;28;20115;-67
2022/01/14 06:43:04;;;;;;;8.02;2.92;;;;;;;;;;5073703;28;20424;-69
2022/01/14 06:45:30;;;;;;;8.27;3.00;;;;;;;;;;5073729;28;20025;-66
2022/01/14 06:47:56;;;;;;;12.27;3.63;;;;;;;;;;5073519;28;20032;-66
2022/01/14 06:50:21;;;;;;;6.53;2.85;;;;;;;;;;5073339;28;20021;-67
2022/01/14 06:52:47;;;;;;;7.40;3.10;;;;;;;;;;5073464;28;20040;-66
2022/01/14 06:55:13;;;;;;;7.95;3.00;;;;;;;;;;5073471;28;20411;-69
2022/01/14 06:57:38;;;;;;;8.40;3.65;;;;;;;;;;5073220;28;20024;-67
2022/01/14 07:00:08;;;;;;;13.10;3.40;;;;;;;;;;5071903;28;20013;-67
2022/01/14 07:02:33;;;;;;;10.88;3.72;;;;;;;;;;5073179;28;20052;-68
2022/01/14 07:04:59;;;;;;;11.52;4.07;;;;;;;;;;5073150;28;20069;-68
2022/01/14 07:07:24;;;;;;;12.38;3.90;;;;;;;;;;5072800;28;20410;-67
2022/01/14 07:09:56;;;;;;;11.68;3.40;;;;;;;;;;5073082;28;20019;-66
2022/01/14 07:12:34;;;;;;;14.13;3.88;;;;;;;;;;5073034;28;20024;-67
2022/01/14 07:15:01;;;;;;;11.82;3.92;;;;;;;;;;5072792;28;20039;-67
2022/01/14 07:17:27;;;;;;;15.25;4.30;;;;;;;;;;5072651;28;20159;-68
2022/01/14 07:19:56;;;;;;;11.10;3.70;;;;;;;;;;5072871;28;20492;-69
2022/01/14 07:22:22;;;;;;;9.23;3.67;;;;;;;;;;5072646;28;20056;-68
2022/01/14 07:24:47;;;;;;;11.40;4.00;;;;;;;;;;5072664;28;20039;-67
2022/01/14 07:27:13;;;;;;;14.68;3.80;;;;;;;;;;5072513;28;20032;-68
2022/01/14 07:29:39;;;;;;;11.98;4.10;;;;;;;;;;5072652;28;20194;-67
2022/01/14 07:32:05;;;;;;;14.23;4.25;;;;;;;;;;5073111;28;20028;-67
2022/01/14 07:34:31;;;;;;;13.30;4.00;;;;;;;;;;5072700;28;20288;-69
2022/01/14 07:36:56;;;;;;;17.70;3.88;;;;;;;;;;5072660;28;20036;-69
2022/01/14 07:39:23;;;;;;;11.32;3.58;;;;;;;;;;5072414;28;20131;-69
2022/01/14 07:41:49;;;;;;;13.45;4.13;;;;;;;;;;5072492;28;20032;-68
2022/01/14 07:44:15;;;;;;;13.57;4.60;;;;;;;;;;5072760;28;20416;-67
2022/01/14 07:46:41;;;;;;;13.68;5.47;;;;;;;;;;5072389;28;20419;-68
2022/01/14 07:49:07;;;;;;;14.25;5.85;;;;;;;;;;5071405;28;20029;-69
2022/01/14 07:51:32;;;;;;;18.20;6.20;;;;;;;;;;5072309;28;20024;-69
2022/01/14 07:53:58;;;;;;;18.13;5.20;;;;;;;;;;5072421;28;20025;-67
2022/01/14 07:56:23;;;;;;;18.48;5.75;;;;;;;;;;5072132;28;20020;-66
2022/01/14 07:58:49;;;;;;;14.25;5.75;;;;;;;;;;5072309;28;20036;-68
2022/01/14 08:01:15;;;;;;;13.82;6.35;;;;;;;;;;5072434;28;20050;-66
2022/01/14 08:03:41;;;;;;;19.67;5.72;;;;;;;;;;5072226;28;20033;-67
2022/01/14 08:06:07;;;;;;;13.48;5.40;;;;;;;;;;5072083;28;20356;-69
2022/01/14 08:08:33;;;;;;;19.83;6.05;;;;;;;;;;5072361;28;20029;-65
2022/01/14 08:10:58;;;;;;;15.70;6.65;;;;;;;;;;5071942;28;20029;-68
2022/01/14 08:13:24;;;;;;;18.05;7.82;;;;;;;;;;5071937;28;20032;-69
2022/01/14 08:15:49;;;;;;;16.38;7.20;;;;;;;;;;5071567;28;20640;-68
2022/01/14 08:18:15;;;;;;;20.92;10.40;;;;;;;;;;5071897;28;20025;-68
2022/01/14 08:20:41;;;;;;;24.90;10.75;;;;;;;;;;5071853;28;20062;-68
2022/01/14 08:23:06;;;;;;;17.45;8.63;;;;;;;;;;5071803;28;20025;-68
2022/01/14 08:25:31;;;;;;;21.83;8.88;;;;;;;;;;5071911;28;20395;-69
2022/01/14 08:27:57;;;;;;;12.48;5.85;;;;;;;;;;5071409;28;20107;-69
2022/01/14 08:30:23;;;;;;;12.38;5.25;;;;;;;;;;5071551;28;20021;-69
2022/01/14 08:32:48;;;;;;;11.85;4.63;;;;;;;;;;5071687;28;20031;-69
2022/01/14 08:35:14;;;;;;;10.20;4.00;;;;;;;;;;5071561;28;20044;-69
2022/01/14 08:37:39;;;;;;;7.00;3.25;;;;;;;;;;5071617;28;20070;-69
2022/01/14 08:40:09;;;;;;;8.45;3.10;;;;;;;;;;5071521;28;20046;-69
2022/01/14 08:42:35;;;;;;;7.88;4.28;;;;;;;;;;5071417;28;20020;-69
2022/01/14 08:45:01;;;;;;;12.85;5.20;;;;;;;;;;5071130;28;20385;-69
2022/01/14 08:47:26;;;;;;;22.55;6.93;;;;;;;;;;5071086;28;20032;-68
2022/01/14 08:49:52;;;;;;;11.95;3.45;;;;;;;;;;5071145;28;20024;-68
2022/01/14 08:52:17;;;;;;;6.75;3.10;;;;;;;;;;5071347;28;20425;-67
2022/01/14 08:54:43;;;;;;;7.40;3.05;;;;;;;;;;5071073;28;20036;-67
2022/01/14 08:57:09;;;;;;;6.93;2.75;;;;;;;;;;5070938;28;20032;-68
2022/01/14 08:59:36;;;;;;;11.43;3.22;;;;;;;;;;5070684;28;20033;-67
2022/01/14 09:02:02;;;;;;;9.02;3.40;;;;;;;;;;5070882;28;20024;-67
2022/01/14 09:04:28;;;;;;;12.18;3.92;;;;;;;;;;5070986;28;20028;-68
2022/01/14 09:06:53;;;;;;;9.68;3.78;;;;;;;;;;5070770;28;20029;-67
2022/01/14 09:09:19;;;;;;;12.35;3.35;;;;;;;;;;5071209;28;20036;-69
2022/01/14 09:11:44;;;;;;;9.75;3.45;;;;;;;;;;5070922;28;20352;-68
2022/01/14 09:14:10;;;;;;;8.80;3.45;;;;;;;;;;5070527;28;20033;-66
2022/01/14 09:16:36;;;;;;;8.93;3.45;;;;;;;;;;5070490;28;20044;-67
2022/01/14 09:19:02;;;;;;;8.38;3.10;;;;;;;;;;5070552;28;20173;-67
2022/01/14 09:21:27;;;;;;;7.20;3.15;;;;;;;;;;5070591;28;20052;-68
2022/01/14 09:24:05;;;;;;;7.25;2.92;;;;;;;;;;5070667;28;20024;-68
2022/01/14 09:26:35;;;;;;;8.45;3.20;;;;;;;;;;5070861;28;20044;-68
2022/01/14 09:29:02;;;;;;;6.82;3.33;;;;;;;;;;5070938;28;20031;-67
2022/01/14 09:31:28;;;;;;;9.75;3.08;;;;;;;;;;5070672;28;20496;-69
2022/01/14 09:33:54;;;;;;;7.03;3.10;;;;;;;;;;5070410;28;20052;-67
2022/01/14 09:36:19;;;;;;;6.13;3.05;;;;;;;;;;5070285;28;20036;-69
2022/01/14 09:38:45;;;;;;;9.25;2.80;;;;;;;;;;5070310;28;20050;-68
2022/01/14 09:41:13;;;;;;;6.45;2.58;;;;;;;;;;5070441;28;20415;-69
2022/01/14 09:43:39;;;;;;;7.10;2.60;;;;;;;;;;5070453;28;20023;-67
2022/01/14 09:46:06;;;;;;;6.97;2.75;;;;;;;;;;5070277;28;20025;-68
2022/01/14 09:48:33;;;;;;;5.97;2.63;;;;;;;;;;5070080;28;20028;-68
2022/01/14 09:50:59;;;;;;;10.10;3.03;;;;;;;;;;5070380;28;20184;-68
2022/01/14 09:53:26;;;;;;;6.47;2.55;;;;;;;;;;5070195;28;20380;-68
2022/01/14 09:55:52;;;;;;;5.93;2.30;;;;;;;;;;5070088;28;20078;-66
2022/01/14 09:58:18;;;;;;;6.13;2.60;;;;;;;;;;5070125;28;20024;-69
2022/01/14 10:00:43;;;;;;;6.72;2.90;;;;;;;;;;5070029;28;20108;-67
2022/01/14 10:03:23;;;;;;;5.75;2.08;;;;;;;;;;5070222;28;20032;-67
2022/01/14 10:05:52;;;;;;;7.45;3.05;;;;;;;;;;5070001;28;20040;-69
2022/01/14 10:08:27;;;;;;;11.85;4.43;;;;;;;;;;5069906;28;20029;-67
2022/01/14 10:10:58;;;;;;;10.25;4.13;;;;;;;;;;5069604;28;20491;-68
2022/01/14 10:13:34;;;;;;;8.73;3.67;;;;;;;;;;5069341;28;20059;-68
2022/01/14 10:16:05;;;;;;;11.07;3.88;;;;;;;;;;5069816;28;20029;-68
2022/01/14 10:18:35;;;;;;;10.77;4.20;;;;;;;;;;5070126;28;20037;-67
2022/01/14 10:21:06;;;;;;;7.72;3.22;;;;;;;;;;5070007;28;20031;-67
2022/01/14 10:23:47;;;;;;;10.40;3.40;;;;;;;;;;5070169;28;20032;-68
2022/01/14 10:26:14;;;;;;;8.95;3.60;;;;;;;;;;5069657;28;20024;-68
2022/01/14 10:28:43;;;;;;;9.18;3.28;;;;;;;;;;5069445;28;20097;-67
2022/01/14 10:31:09;;;;;;;7.43;2.90;;;;;;;;;;5070197;28;20039;-67
2022/01/14 10:33:34;;;;;;;7.68;3.00;;;;;;;;;;5070127;28;20025;-68
2022/01/14 10:36:00;;;;;;;6.55;3.03;;;;;;;;;;5069709;28;20029;-68
2022/01/14 10:38:36;;;;;;;6.97;3.05;;;;;;;;;;5069700;28;20090;-68
2022/01/14 10:41:07;;;;;;;8.45;3.20;;;;;;;;;;5069621;28;20029;-68
2022/01/14 10:43:35;;;;;;;8.68;3.40;;;;;;;;;;5069584;28;20031;-68
2022/01/14 10:46:05;;;;;;;7.93;3.45;;;;;;;;;;5069356;28;20052;-67
2022/01/14 10:48:34;;;;;;;7.28;3.13;;;;;;;;;;5069496;28;20033;-68
2022/01/14 10:51:01;;;;;;;8.68;3.10;;;;;;;;;;5069483;28;20032;-68
2022/01/14 10:53:35;;;;;;;9.45;4.25;;;;;;;;;;5069796;28;20052;-68
2022/01/14 10:56:10;;;;;;;9.23;3.58;;;;;;;;;;5069560;28;20135;-68
2022/01/14 10:58:38;;;;;;;6.88;3.42;;;;;;;;;;5069430;28;20060;-68
2022/01/14 11:01:07;;;;;;;10.05;3.90;;;;;;;;;;5069187;28;20450;-67
2022/01/14 11:04:03;;;;;;;8.40;3.92;;;;;;;;;;5069653;28;20476;-68
2022/01/14 11:06:39;;;;;;;11.27;5.15;;;;;;;;;;5067405;28;20032;-67
2022/01/14 11:09:05;;;;;;;10.05;4.70;;;;;;;;;;5069530;28;20074;-68
2022/01/14 11:11:42;;;;;;;12.52;5.57;;;;;;;;;;5069569;28;20020;-68
2022/01/14 11:14:08;;;;;;;12.32;6.07;;;;;;;;;;5069275;28;20039;-68
2022/01/14 11:16:35;;;;;;;18.70;6.22;;;;;;;;;;5069518;28;20045;-68
2022/01/14 11:19:02;;;;;;;15.13;6.43;;;;;;;;;;5069171;28;20164;-68
2022/01/14 11:24:14;;;;;;;10.57;5.28;;;;;;;;;;5072310;28;20568;-68
2022/01/14 11:26:41;;;;;;;14.57;5.38;;;;;;;;;;5073131;28;20488;-67
2022/01/14 11:29:17;;;;;;;12.20;5.18;;;;;;;;;;5072520;28;20025;-68
2022/01/14 11:31:44;;;;;;;10.38;5.13;;;;;;;;;;5072799;28;20020;-68
2022/01/14 11:34:45;;;;;;;11.77;4.40;;;;;;;;;;5072558;28;20028;-68
2022/01/14 11:37:16;;;;;;;10.60;4.45;;;;;;;;;;5072618;28;20030;-68
2022/01/14 11:39:54;;;;;;;9.15;3.97;;;;;;;;;;5072472;28;20122;-67
2022/01/14 11:42:38;;;;;;;8.38;3.90;;;;;;;;;;5072666;28;20431;-69
2022/01/14 11:45:06;;;;;;;8.07;3.70;;;;;;;;;;5072476;28;20024;-68
2022/01/14 11:47:42;;;;;;;7.63;3.28;;;;;;;;;;5072343;28;20054;-68
2022/01/14 11:50:23;;;;;;;8.55;3.58;;;;;;;;;;5072453;28;20430;-68
2022/01/14 11:52:50;;;;;;;6.03;2.92;;;;;;;;;;5072242;28;20024;-68
2022/01/14 11:55:21;;;;;;;6.53;3.20;;;;;;;;;;5072126;28;20042;-70
2022/01/14 11:57:58;;;;;;;8.50;3.08;;;;;;;;;;5072243;28;20020;-69
2022/01/14 12:00:30;;;;;;;7.90;3.20;;;;;;;;;;5072162;28;20021;-69
2022/01/14 12:03:21;;;;;;;6.82;3.00;;;;;;;;;;5072050;28;20380;-69
2022/01/14 12:05:53;;;;;;;11.50;3.20;;;;;;;;;;5067088;28;20195;-69
2022/01/14 12:08:20;;;;;;;6.40;3.10;;;;;;;;;;5071748;28;20117;-69
2022/01/14 12:10:52;;;;;;;7.28;2.50;;;;;;;;;;5071881;28;20016;-68
2022/01/14 12:13:41;;;;;;;6.43;2.70;;;;;;;;;;5071962;28;20025;-69
2022/01/14 12:16:29;;;;;;;6.60;2.70;;;;;;;;;;5071584;28;20476;-67
2022/01/14 12:18:55;;;;;;;5.63;2.55;;;;;;;;;;5072326;28;20028;-68
2022/01/14 12:21:50;;;;;;;6.30;2.50;;;;;;;;;;5072020;28;20032;-67
2022/01/14 12:24:18;;;;;;;11.23;4.65;;;;;;;;;;5072205;28;20037;-67
2022/01/14 12:27:08;;;;;;;6.53;2.72;;;;;;;;;;5072053;28;20047;-67
2022/01/14 12:29:40;;;;;;;6.07;2.58;;;;;;;;;;5071572;28;20059;-68
2022/01/14 12:32:20;;;;;;;6.82;2.55;;;;;;;;;;5071795;28;20107;-67
2022/01/14 12:34:48;;;;;;;8.05;2.67;;;;;;;;;;5070840;28;20036;-68
2022/01/14 12:37:26;;;;;;;5.55;2.60;;;;;;;;;;5071875;28;20162;-68
2022/01/14 12:39:52;;;;;;;5.53;2.50;;;;;;;;;;5071216;28;20025;-68
2022/01/14 12:42:19;;;;;;;5.57;2.60;;;;;;;;;;5071315;28;20103;-67
2022/01/14 12:44:47;;;;;;;6.63;2.60;;;;;;;;;;5071154;28;20036;-68
2022/01/14 12:47:20;;;;;;;8.35;2.80;;;;;;;;;;5071340;28;20037;-68
2022/01/14 12:49:48;;;;;;;9.15;2.65;;;;;;;;;;5071415;28;20115;-68
2022/01/14 12:52:19;;;;;;;6.68;2.53;;;;;;;;;;5069719;28;20377;-68
2022/01/14 12:54:46;;;;;;;5.50;1.90;;;;;;;;;;5071267;28;20048;-68
2022/01/14 12:57:17;;;;;;;5.57;2.17;;;;;;;;;;5070852;28;20074;-68
2022/01/14 12:59:47;;;;;;;5.05;2.22;;;;;;;;;;5070325;28;20050;-67
2022/01/14 13:02:24;;;;;;;4.57;1.98;;;;;;;;;;5070802;28;20480;-68
2022/01/14 13:05:15;;;;;;;7.80;1.75;;;;;;;;;;5070979;28;20029;-67
2022/01/14 13:07:42;;;;;;;5.90;1.90;;;;;;;;;;5070940;28;20036;-67
2022/01/14 13:10:10;;;;;;;4.45;1.90;;;;;;;;;;5070919;28;20562;-68
2022/01/14 13:12:40;;;;;;;3.72;2.05;;;;;;;;;;5070865;28;20020;-67
2022/01/14 13:15:11;;;;;;;4.43;1.60;;;;;;;;;;5070216;28;20032;-67
2022/01/14 13:17:41;;;;;;;3.65;1.70;;;;;;;;;;5070520;28;20285;-68
2022/01/14 13:20:10;;;;;;;2.90;1.52;;;;;;;;;;5070808;28;20047;-68
2022/01/14 13:22:39;;;;;;;3.60;1.58;;;;;;;;;;5070630;28;20040;-68
2022/01/14 13:25:19;;;;;;;4.85;1.70;;;;;;;;;;5070615;28;20039;-67
2022/01/14 13:27:51;;;;;;;3.70;1.80;;;;;;;;;;5070693;28;20484;-69
2022/01/14 13:30:21;;;;;;;2.47;1.40;;;;;;;;;;5070234;28;20035;-68
2022/01/14 13:32:49;;;;;;;2.95;1.42;;;;;;;;;;5070554;28;20439;-68
2022/01/14 13:35:25;;;;;;;3.22;1.40;;;;;;;;;;5070359;28;20067;-68
2022/01/14 13:37:56;;;;;;;2.25;1.27;;;;;;;;;;5070465;28;20034;-68
2022/01/14 13:40:30;;;;;;;2.90;1.50;;;;;;;;;;5070343;28;20035;-68
2022/01/14 13:43:07;;;;;;;3.70;1.30;;;;;;;;;;5070456;28;20085;-68
2022/01/14 13:45:40;;;;;;;3.60;1.45;;;;;;;;;;5070222;28;20451;-68
2022/01/14 13:48:19;;;;;;;4.35;1.65;;;;;;;;;;5069938;28;20117;-68
2022/01/14 13:50:47;;;;;;;2.80;1.42;;;;;;;;;;5070109;28;20028;-66
2022/01/14 13:53:16;;;;;;;3.55;1.60;;;;;;;;;;5070218;28;20043;-68
2022/01/14 13:55:45;;;;;;;3.33;1.60;;;;;;;;;;5070226;28;20036;-69
2022/01/14 13:58:14;;;;;;;6.22;1.65;;;;;;;;;;5070279;28;20154;-69
2022/01/14 14:00:42;;;;;;;3.42;1.48;;;;;;;;;;5069808;28;20029;-68
2022/01/14 14:03:37;;;;;;;4.18;1.48;;;;;;;;;;5070084;28;20056;-68
2022/01/14 14:06:15;;;;;;;3.22;1.58;;;;;;;;;;5069970;28;20020;-68
2022/01/14 14:17:03;;;;;;;5.20;1.70;;;;;;;;;;5069859;28;20052;-68
2022/01/14 14:19:40;;;;;;;2.95;1.40;;;;;;;;;;5069865;28;20025;-68
2022/01/14 14:22:27;;;;;;;3.70;1.67;;;;;;;;;;5069887;28;20104;-68
2022/01/14 14:25:04;;;;;;;5.43;2.00;;;;;;;;;;5069957;28;20112;-68
2022/01/14 14:27:31;;;;;;;3.55;2.10;;;;;;;;;;5069803;28;20024;-68
2022/01/14 14:29:59;;;;;;;2.45;1.42;;;;;;;;;;5069717;28;20028;-66
2022/01/14 14:32:31;;;;;;;2.92;1.70;;;;;;;;;;5069825;28;20077;-68
2022/01/14 14:35:02;;;;;;;3.72;1.67;;;;;;;;;;5069895;28;20033;-67
2022/01/14 14:37:29;;;;;;;5.55;2.10;;;;;;;;;;5102254;28;20036;-68
2022/01/14 14:39:55;;;;;;;4.85;2.05;;;;;;;;;;5069442;28;20032;-67
2022/01/14 14:42:21;;;;;;;5.57;1.90;;;;;;;;;;5069741;28;20021;-67
2022/01/14 14:44:47;;;;;;;5.13;2.45;;;;;;;;;;5069498;28;20028;-68
2022/01/14 14:47:14;;;;;;;5.85;2.70;;;;;;;;;;5069584;28;20016;-68
2022/01/14 14:49:40;;;;;;;6.45;2.63;;;;;;;;;;5069367;28;20021;-68
2022/01/14 14:52:06;;;;;;;10.05;2.95;;;;;;;;;;5069542;28;20021;-68
2022/01/14 14:54:32;;;;;;;5.70;3.00;;;;;;;;;;5069625;28;20071;-68
2022/01/14 14:56:58;;;;;;;9.43;4.60;;;;;;;;;;5069102;28;20021;-68
2022/01/14 14:59:23;;;;;;;13.55;7.03;;;;;;;;;;5072147;28;20016;-67
2022/01/14 15:01:50;;;;;;;23.88;11.77;;;;;;;;;;5073394;28;20021;-68
2022/01/14 15:04:16;;;;;;;21.02;10.35;;;;;;;;;;5073098;28;20382;-68
2022/01/14 15:06:41;;;;;;;22.38;10.13;;;;;;;;;;5073446;28;20476;-68
2022/01/14 15:09:07;;;;;;;13.88;6.13;;;;;;;;;;5072881;28;20032;-68
2022/01/14 15:11:33;;;;;;;9.20;4.05;;;;;;;;;;5073063;28;20024;-68
2022/01/14 15:13:59;;;;;;;6.93;3.35;;;;;;;;;;5072658;28;20020;-68
2022/01/14 15:18:59;;;;;;;7.40;3.10;;;;;;;;;;5073106;28;20055;-68
2022/01/14 15:21:25;;;;;;;7.38;2.90;;;;;;;;;;5072842;28;20107;-67
2022/01/14 15:23:51;;;;;;;8.02;3.50;;;;;;;;;;5071551;28;20500;-68
2022/01/14 15:26:17;;;;;;;7.72;2.88;;;;;;;;;;5072878;28;20102;-67
2022/01/14 15:28:42;;;;;;;7.13;3.25;;;;;;;;;;5072533;28;20032;-68